sensor_id;sensor_type;location;lat;lon;timestamp;pressure;altitude;pressure_sealevel;temperature;humidity
77227;BME280;66234;47.642;19.144;2023-08-30T00:00:50;99114.91;;;16.92;100.00
77227;BME280;66234;47.642;19.144;2023-08-30T00:03:53;99118.94;;;16.85;100.00
77227;BME280;66234;47.642;19.144;2023-08-30T00:06:57;99124.34;;;16.85;100.00
77227;BME280;66234;47.642;19.144;2023-08-30T00:09:59;99125.16;;;16.85;100.00
77227;BME280;66234;47.642;19.144;2023-08-30T00:13:02;99134.63;;;16.88;100.00
77227;BME280;66234;47.642;19.144;2023-08-30T00:16:04;99123.28;;;16.91;100.00
77227;BME280;66234;47.642;19.144;2023-08-30T00:19:07;99122.19;;;16.92;100.00
77227;BME280;66234;47.642;19.144;2023-08-30T00:22:09;99114.91;;;16.82;100.00
77227;BME280;66234;47.642;19.144;2023-08-30T00:25:12;99121.41;;;16.76;100.00
77227;BME280;66234;47.642;19.144;2023-08-30T00:28:14;99123.34;;;16.61;100.00
77227;BME280;66234;47.642;19.144;2023-08-30T00:31:17;99123.34;;;16.66;100.00
77227;BME280;66234;47.642;19.144;2023-08-30T00:34:19;99120.38;;;16.57;100.00
77227;BME280;66234;47.642;19.144;2023-08-30T00:37:23;99114.19;;;16.57;100.00
77227;BME280;66234;47.642;19.144;2023-08-30T00:40:26;99123.34;;;16.61;100.00
77227;BME280;66234;47.642;19.144;2023-08-30T00:43:29;99118.50;;;16.58;100.00
77227;BME280;66234;47.642;19.144;2023-08-30T00:46:32;99123.63;;;16.59;100.00
77227;BME280;66234;47.642;19.144;2023-08-30T00:49:35;99128.19;;;16.64;100.00
77227;BME280;66234;47.642;19.144;2023-08-30T00:52:38;99129.84;;;16.55;100.00
77227;BME280;66234;47.642;19.144;2023-08-30T00:55:42;99131.47;;;16.46;100.00
77227;BME280;66234;47.642;19.144;2023-08-30T00:58:47;99135.75;;;16.41;100.00
77227;BME280;66234;47.642;19.144;2023-08-30T01:01:50;99143.31;;;16.44;100.00
77227;BME280;66234;47.642;19.144;2023-08-30T01:04:53;99144.97;;;16.46;100.00
77227;BME280;66234;47.642;19.144;2023-08-30T01:07:56;99144.97;;;16.46;100.00
77227;BME280;66234;47.642;19.144;2023-08-30T01:11:10;99155.75;;;16.46;100.00
77227;BME280;66234;47.642;19.144;2023-08-30T01:14:40;99151.66;;;16.43;100.00
77227;BME280;66234;47.642;19.144;2023-08-30T01:17:42;99148.19;;;16.48;100.00
77227;BME280;66234;47.642;19.144;2023-08-30T01:20:48;99145.75;;;16.36;100.00
77227;BME280;66234;47.642;19.144;2023-08-30T01:23:59;99156.25;;;16.37;100.00
77227;BME280;66234;47.642;19.144;2023-08-30T01:27:11;99152.47;;;16.38;100.00
77227;BME280;66234;47.642;19.144;2023-08-30T01:30:14;99161.66;;;16.37;100.00
77227;BME280;66234;47.642;19.144;2023-08-30T01:33:18;99156.81;;;16.39;100.00
77227;BME280;66234;47.642;19.144;2023-08-30T01:36:21;99157.63;;;16.35;100.00
77227;BME280;66234;47.642;19.144;2023-08-30T01:39:24;99154.13;;;16.39;100.00
77227;BME280;66234;47.642;19.144;2023-08-30T01:42:27;99153.28;;;16.39;100.00
77227;BME280;66234;47.642;19.144;2023-08-30T01:45:30;99158.97;;;16.37;100.00
77227;BME280;66234;47.642;19.144;2023-08-30T01:48:35;99145.19;;;16.34;100.00
77227;BME280;66234;47.642;19.144;2023-08-30T01:51:39;99151.69;;;16.33;100.00
77227;BME280;66234;47.642;19.144;2023-08-30T01:54:43;99144.41;;;16.33;100.00
77227;BME280;66234;47.642;19.144;2023-08-30T01:57:48;99153.56;;;16.32;100.00
77227;BME280;66234;47.642;19.144;2023-08-30T02:00:51;99151.41;;;16.34;100.00
77227;BME280;66234;47.642;19.144;2023-08-30T02:03:53;99156.53;;;16.36;100.00
77227;BME280;66234;47.642;19.144;2023-08-30T02:07:02;99152.50;;;16.33;100.00
77227;BME280;66234;47.642;19.144;2023-08-30T02:10:09;99150.06;;;16.27;100.00
77227;BME280;66234;47.642;19.144;2023-08-30T02:13:13;99166.00;;;16.33;100.00
77227;BME280;66234;47.642;19.144;2023-08-30T02:16:17;99165.97;;;16.28;100.00
77227;BME280;66234;47.642;19.144;2023-08-30T02:19:21;99158.16;;;16.27;100.00
77227;BME280;66234;47.642;19.144;2023-08-30T02:22:24;99153.84;;;16.31;100.00
77227;BME280;66234;47.642;19.144;2023-08-30T02:25:27;99143.31;;;16.29;100.00
77227;BME280;66234;47.642;19.144;2023-08-30T02:28:29;99148.16;;;16.32;100.00
77227;BME280;66234;47.642;19.144;2023-08-30T02:31:32;99148.97;;;16.33;100.00
77227;BME280;66234;47.642;19.144;2023-08-30T02:34:34;99148.47;;;16.21;100.00
77227;BME280;66234;47.642;19.144;2023-08-30T02:37:38;99155.72;;;16.15;100.00
77227;BME280;66234;47.642;19.144;2023-08-30T02:40:42;99163.28;;;16.18;100.00
77227;BME280;66234;47.642;19.144;2023-08-30T02:43:45;99158.41;;;16.15;100.00
77227;BME280;66234;47.642;19.144;2023-08-30T02:46:47;99159.50;;;16.09;100.00
77227;BME280;66234;47.642;19.144;2023-08-30T02:49:50;99155.47;;;16.07;100.00
77227;BME280;66234;47.642;19.144;2023-08-30T02:52:52;99161.38;;;16.09;100.00
77227;BME280;66234;47.642;19.144;2023-08-30T02:55:55;99158.41;;;16.00;100.00
77227;BME280;66234;47.642;19.144;2023-08-30T02:58:58;99160.56;;;15.98;100.00
77227;BME280;66234;47.642;19.144;2023-08-30T03:02:00;99152.47;;;15.98;100.00
77227;BME280;66234;47.642;19.144;2023-08-30T03:05:03;99166.50;;;16.00;100.00
77227;BME280;66234;47.642;19.144;2023-08-30T03:08:07;99167.88;;;15.98;100.00
77227;BME280;66234;47.642;19.144;2023-08-30T03:11:11;99168.91;;;15.92;100.00
77227;BME280;66234;47.642;19.144;2023-08-30T03:14:24;99177.53;;;15.84;100.00
77227;BME280;66234;47.642;19.144;2023-08-30T03:17:27;99167.81;;;15.83;100.00
77227;BME280;66234;47.642;19.144;2023-08-30T03:20:33;99180.50;;;15.82;100.00
77227;BME280;66234;47.642;19.144;2023-08-30T03:23:36;99181.28;;;15.83;100.00
77227;BME280;66234;47.642;19.144;2023-08-30T03:26:39;99178.06;;;15.81;100.00
77227;BME280;66234;47.642;19.144;2023-08-30T03:29:43;99174.59;;;15.85;100.00
77227;BME280;66234;47.642;19.144;2023-08-30T03:32:47;99185.91;;;15.82;100.00
77227;BME280;66234;47.642;19.144;2023-08-30T03:35:51;99176.94;;;15.72;100.00
77227;BME280;66234;47.642;19.144;2023-08-30T03:38:53;99182.63;;;15.75;100.00
77227;BME280;66234;47.642;19.144;2023-08-30T03:41:56;99188.28;;;15.74;100.00
77227;BME280;66234;47.642;19.144;2023-08-30T03:44:58;99179.94;;;15.65;100.00
77227;BME280;66234;47.642;19.144;2023-08-30T03:48:01;99186.38;;;15.59;100.00
77227;BME280;66234;47.642;19.144;2023-08-30T03:51:04;99186.91;;;15.61;100.00
77227;BME280;66234;47.642;19.144;2023-08-30T03:54:08;99194.22;;;15.71;100.00
77227;BME280;66234;47.642;19.144;2023-08-30T03:57:15;99190.72;;;15.75;100.00
77227;BME280;66234;47.642;19.144;2023-08-30T04:00:18;99195.56;;;15.73;100.00
77227;BME280;66234;47.642;19.144;2023-08-30T04:03:20;99200.41;;;15.76;100.00
77227;BME280;66234;47.642;19.144;2023-08-30T04:06:25;99206.63;;;15.77;100.00
77227;BME280;66234;47.642;19.144;2023-08-30T04:09:27;99211.22;;;15.86;100.00
77227;BME280;66234;47.642;19.144;2023-08-30T04:12:30;99201.78;;;15.79;100.00
77227;BME280;66234;47.642;19.144;2023-08-30T04:15:37;99208.00;;;15.89;100.00
77227;BME280;66234;47.642;19.144;2023-08-30T04:18:40;99206.09;;;15.85;100.00
77227;BME280;66234;47.642;19.144;2023-08-30T04:21:42;99210.16;;;15.87;100.00
77227;BME280;66234;47.642;19.144;2023-08-30T04:24:46;99216.63;;;15.91;100.00
77227;BME280;66234;47.642;19.144;2023-08-30T04:27:48;99216.66;;;15.96;100.00
77227;BME280;66234;47.642;19.144;2023-08-30T04:30:53;99220.97;;;16.07;100.00
77227;BME280;66234;47.642;19.144;2023-08-30T04:33:57;99225.31;;;16.18;100.00
77227;BME280;66234;47.642;19.144;2023-08-30T04:36:59;99233.97;;;16.25;100.00
77227;BME280;66234;47.642;19.144;2023-08-30T04:40:02;99222.63;;;16.28;100.00
77227;BME280;66234;47.642;19.144;2023-08-30T04:43:05;99229.09;;;16.37;100.00
77227;BME280;66234;47.642;19.144;2023-08-30T04:46:09;99234.50;;;16.42;100.00
77227;BME280;66234;47.642;19.144;2023-08-30T04:49:11;99239.13;;;16.62;100.00
77227;BME280;66234;47.642;19.144;2023-08-30T04:52:14;99231.56;;;16.64;100.00
77227;BME280;66234;47.642;19.144;2023-08-30T04:55:17;99239.91;;;16.73;100.00
77227;BME280;66234;47.642;19.144;2023-08-30T04:58:20;99242.88;;;16.91;100.00
77227;BME280;66234;47.642;19.144;2023-08-30T05:01:22;99241.78;;;17.02;100.00
77227;BME280;66234;47.642;19.144;2023-08-30T05:04:28;99240.13;;;17.16;100.00
77227;BME280;66234;47.642;19.144;2023-08-30T05:07:30;99240.94;;;17.17;100.00
77227;BME280;66234;47.642;19.144;2023-08-30T05:10:33;99231.78;;;17.08;100.00
77227;BME280;66234;47.642;19.144;2023-08-30T05:13:35;99240.41;;;17.20;100.00
77227;BME280;66234;47.642;19.144;2023-08-30T05:16:38;99236.06;;;17.24;99.62
77227;BME280;66234;47.642;19.144;2023-08-30T05:19:41;99253.34;;;17.23;99.44
77227;BME280;66234;47.642;19.144;2023-08-30T05:22:44;99241.19;;;17.20;99.34
77227;BME280;66234;47.642;19.144;2023-08-30T05:25:46;99247.41;;;17.26;99.08
77227;BME280;66234;47.642;19.144;2023-08-30T05:28:51;99237.16;;;17.23;98.47
77227;BME280;66234;47.642;19.144;2023-08-30T05:31:53;99241.22;;;17.15;97.63
77227;BME280;66234;47.642;19.144;2023-08-30T05:35:03;99245.25;;;17.13;98.19
77227;BME280;66234;47.642;19.144;2023-08-30T05:38:24;99245.53;;;17.26;97.27
77227;BME280;66234;47.642;19.144;2023-08-30T05:41:48;99248.47;;;17.30;97.13
77227;BME280;66234;47.642;19.144;2023-08-30T05:44:53;99250.59;;;17.38;99.07
77227;BME280;66234;47.642;19.144;2023-08-30T05:47:55;99253.88;;;17.45;98.16
77227;BME280;66234;47.642;19.144;2023-08-30T05:50:58;99253.88;;;17.45;98.09
77227;BME280;66234;47.642;19.144;2023-08-30T05:54:01;99247.31;;;17.56;97.18
77227;BME280;66234;47.642;19.144;2023-08-30T05:57:04;99255.97;;;17.63;97.03
77227;BME280;66234;47.642;19.144;2023-08-30T06:00:07;99259.19;;;17.65;95.31
77227;BME280;66234;47.642;19.144;2023-08-30T06:03:16;99268.09;;;17.65;95.77
77227;BME280;66234;47.642;19.144;2023-08-30T06:06:19;99265.38;;;17.70;96.36
77227;BME280;66234;47.642;19.144;2023-08-30T06:09:23;99260.72;;;17.81;94.84
77227;BME280;66234;47.642;19.144;2023-08-30T06:12:27;99260.44;;;17.87;94.26
77227;BME280;66234;47.642;19.144;2023-08-30T06:15:30;99258.28;;;17.84;95.88
77227;BME280;66234;47.642;19.144;2023-08-30T06:18:32;99253.94;;;17.88;95.80
77227;BME280;66234;47.642;19.144;2023-08-30T06:21:35;99257.94;;;17.96;93.51
77227;BME280;66234;47.642;19.144;2023-08-30T06:24:38;99253.88;;;18.03;94.06
77227;BME280;66234;47.642;19.144;2023-08-30T06:27:54;99258.94;;;18.15;92.56
77227;BME280;66234;47.642;19.144;2023-08-30T06:30:59;99267.41;;;18.03;92.98
77227;BME280;66234;47.642;19.144;2023-08-30T06:34:01;99264.03;;;18.22;91.38
77227;BME280;66234;47.642;19.144;2023-08-30T06:37:04;99274.16;;;18.50;90.46
77227;BME280;66234;47.642;19.144;2023-08-30T06:40:09;99280.72;;;18.77;88.37
77227;BME280;66234;47.642;19.144;2023-08-30T06:43:17;99277.59;;;18.60;88.41
77227;BME280;66234;47.642;19.144;2023-08-30T06:46:25;99283.97;;;18.41;87.46
77227;BME280;66234;47.642;19.144;2023-08-30T06:49:28;99285.13;;;18.68;87.04
77227;BME280;66234;47.642;19.144;2023-08-30T06:52:33;99285.13;;;18.68;86.16
77227;BME280;66234;47.642;19.144;2023-08-30T06:55:43;99283.09;;;18.84;85.69
77227;BME280;66234;47.642;19.144;2023-08-30T06:58:48;99273.75;;;19.28;84.73
77227;BME280;66234;47.642;19.144;2023-08-30T07:01:54;99262.06;;;19.56;82.07
77227;BME280;66234;47.642;19.144;2023-08-30T07:05:18;99270.69;;;19.58;83.19
77227;BME280;66234;47.642;19.144;2023-08-30T07:09:16;99268.44;;;19.42;81.93
77227;BME280;66234;47.642;19.144;2023-08-30T07:16:02;99275.44;;;19.72;81.66
77227;BME280;66234;47.642;19.144;2023-08-30T07:19:16;99270.88;;;19.43;82.86
77227;BME280;66234;47.642;19.144;2023-08-30T07:22:20;99270.88;;;19.43;82.16
77227;BME280;66234;47.642;19.144;2023-08-30T07:25:23;99267.81;;;19.74;81.08
77227;BME280;66234;47.642;19.144;2023-08-30T07:28:27;99268.47;;;19.66;81.80
77227;BME280;66234;47.642;19.144;2023-08-30T07:31:31;99269.78;;;20.10;79.15
77227;BME280;66234;47.642;19.144;2023-08-30T07:34:35;99277.75;;;19.83;80.95
77227;BME280;66234;47.642;19.144;2023-08-30T07:37:38;99275.97;;;19.74;81.77
77227;BME280;66234;47.642;19.144;2023-08-30T07:40:41;99271.56;;;19.78;80.41
77227;BME280;66234;47.642;19.144;2023-08-30T07:43:44;99269.09;;;20.00;80.25
77227;BME280;66234;47.642;19.144;2023-08-30T07:46:47;99272.78;;;20.09;80.25
77227;BME280;66234;47.642;19.144;2023-08-30T07:49:50;99277.13;;;19.68;81.07
77227;BME280;66234;47.642;19.144;2023-08-30T07:52:54;99281.81;;;19.81;80.37
77227;BME280;66234;47.642;19.144;2023-08-30T07:55:59;99285.53;;;19.42;82.95
77227;BME280;66234;47.642;19.144;2023-08-30T07:59:03;99285.19;;;19.73;81.11
77227;BME280;66234;47.642;19.144;2023-08-30T08:02:07;99292.56;;;19.91;80.44
77227;BME280;66234;47.642;19.144;2023-08-30T08:05:10;99295.28;;;19.91;79.33
77227;BME280;66234;47.642;19.144;2023-08-30T08:08:12;99298.69;;;19.78;79.57
77227;BME280;66234;47.642;19.144;2023-08-30T08:11:17;99291.84;;;19.80;79.18
77227;BME280;66234;47.642;19.144;2023-08-30T08:14:20;99309.44;;;19.64;79.65
77227;BME280;66234;47.642;19.144;2023-08-30T08:17:23;99307.16;;;19.95;78.65
77227;BME280;66234;47.642;19.144;2023-08-30T08:20:26;99310.22;;;20.30;77.09
77227;BME280;66234;47.642;19.144;2023-08-30T08:23:29;99299.69;;;20.05;77.47
77227;BME280;66234;47.642;19.144;2023-08-30T08:26:32;99295.28;;;19.91;79.90
77227;BME280;66234;47.642;19.144;2023-08-30T08:29:34;99303.72;;;19.66;81.01
77227;BME280;66234;47.642;19.144;2023-08-30T08:32:37;99301.19;;;19.93;79.81
77227;BME280;66234;47.642;19.144;2023-08-30T08:35:42;99306.66;;;19.69;80.46
77227;BME280;66234;47.642;19.144;2023-08-30T08:38:45;99309.56;;;19.96;79.90
77227;BME280;66234;47.642;19.144;2023-08-30T08:41:51;99308.59;;;20.11;78.03
77227;BME280;66234;47.642;19.144;2023-08-30T08:44:56;99318.91;;;20.32;76.93
77227;BME280;66234;47.642;19.144;2023-08-30T08:48:00;99322.94;;;20.11;77.19
77227;BME280;66234;47.642;19.144;2023-08-30T08:51:05;99308.88;;;20.09;77.00
77227;BME280;66234;47.642;19.144;2023-08-30T08:54:07;99304.66;;;20.22;76.47
77227;BME280;66234;47.642;19.144;2023-08-30T08:57:12;99310.47;;;20.34;76.57
77227;BME280;66234;47.642;19.144;2023-08-30T09:00:15;99303.44;;;20.09;77.04
77227;BME280;66234;47.642;19.144;2023-08-30T09:03:21;99316.13;;;20.19;76.51
77227;BME280;66234;47.642;19.144;2023-08-30T09:06:24;99317.97;;;20.60;75.00
77227;BME280;66234;47.642;19.144;2023-08-30T09:09:27;99318.81;;;20.74;76.58
77227;BME280;66234;47.642;19.144;2023-08-30T09:12:34;99326.16;;;20.74;74.60
77227;BME280;66234;47.642;19.144;2023-08-30T09:15:37;99335.19;;;20.51;75.78
77227;BME280;66234;47.642;19.144;2023-08-30T09:18:41;99327.03;;;20.88;74.41
77227;BME280;66234;47.642;19.144;2023-08-30T09:21:59;99323.47;;;21.06;73.01
77227;BME280;66234;47.642;19.144;2023-08-30T09:25:02;99332.72;;;20.73;73.64
77227;BME280;66234;47.642;19.144;2023-08-30T09:28:06;99329.84;;;20.46;74.73
77227;BME280;66234;47.642;19.144;2023-08-30T09:31:17;99336.66;;;20.80;73.61
77227;BME280;66234;47.642;19.144;2023-08-30T09:34:25;99339.81;;;20.69;74.50
77227;BME280;66234;47.642;19.144;2023-08-30T09:37:28;99339.56;;;20.28;76.29
77227;BME280;66234;47.642;19.144;2023-08-30T09:40:30;99344.94;;;20.10;77.38
77227;BME280;66234;47.642;19.144;2023-08-30T09:43:34;99351.25;;;20.05;78.53
77227;BME280;66234;47.642;19.144;2023-08-30T09:46:43;99347.28;;;19.74;78.38
77227;BME280;66234;47.642;19.144;2023-08-30T09:49:55;99352.53;;;19.89;77.34
77227;BME280;66234;47.642;19.144;2023-08-30T09:52:58;99354.25;;;20.04;76.34
77227;BME280;66234;47.642;19.144;2023-08-30T09:56:02;99359.97;;;20.26;75.01
77227;BME280;66234;47.642;19.144;2023-08-30T09:59:06;99353.34;;;20.55;73.36
77227;BME280;66234;47.642;19.144;2023-08-30T10:02:09;99348.25;;;20.86;71.91
77227;BME280;66234;47.642;19.144;2023-08-30T10:05:13;99360.00;;;21.32;70.36
77227;BME280;66234;47.642;19.144;2023-08-30T10:08:17;99355.31;;;21.51;69.61
77227;BME280;66234;47.642;19.144;2023-08-30T10:11:21;99353.81;;;21.45;69.52
77227;BME280;66234;47.642;19.144;2023-08-30T10:14:23;99352.25;;;21.98;68.24
77227;BME280;66234;47.642;19.144;2023-08-30T10:17:32;99350.06;;;21.41;70.30
77227;BME280;66234;47.642;19.144;2023-08-30T10:20:37;99342.91;;;21.45;70.68
77227;BME280;66234;47.642;19.144;2023-08-30T10:23:43;99338.47;;;21.36;70.13
77227;BME280;66234;47.642;19.144;2023-08-30T10:26:46;99351.66;;;21.29;71.77
77227;BME280;66234;47.642;19.144;2023-08-30T10:29:51;99349.97;;;21.60;69.38
77227;BME280;66234;47.642;19.144;2023-08-30T10:32:54;99347.50;;;21.77;69.67
77227;BME280;66234;47.642;19.144;2023-08-30T10:36:05;99355.84;;;21.53;70.32
77227;BME280;66234;47.642;19.144;2023-08-30T10:39:11;99350.31;;;21.72;70.32
77227;BME280;66234;47.642;19.144;2023-08-30T10:42:15;99354.97;;;21.98;69.62
77227;BME280;66234;47.642;19.144;2023-08-30T10:45:23;99349.47;;;22.52;67.34
77227;BME280;66234;47.642;19.144;2023-08-30T10:48:34;99345.50;;;22.23;67.75
77227;BME280;66234;47.642;19.144;2023-08-30T10:51:38;99349.78;;;22.87;65.50
77227;BME280;66234;47.642;19.144;2023-08-30T10:54:41;99350.53;;;22.16;67.79
77227;BME280;66234;47.642;19.144;2023-08-30T10:57:45;99349.44;;;21.76;69.50
77227;BME280;66234;47.642;19.144;2023-08-30T11:00:48;99350.09;;;21.68;69.80
77227;BME280;66234;47.642;19.144;2023-08-30T11:03:55;99350.28;;;21.58;70.56
77227;BME280;66234;47.642;19.144;2023-08-30T11:07:16;99338.31;;;21.59;70.15
77227;BME280;66234;47.642;19.144;2023-08-30T11:10:19;99341.88;;;21.87;69.02
77227;BME280;66234;47.642;19.144;2023-08-30T11:13:22;99345.72;;;21.86;68.69
77227;BME280;66234;47.642;19.144;2023-08-30T11:16:26;99340.28;;;21.99;68.46
77227;BME280;66234;47.642;19.144;2023-08-30T11:19:29;99347.72;;;22.21;67.47
77227;BME280;66234;47.642;19.144;2023-08-30T11:22:43;99345.50;;;22.23;67.36
77227;BME280;66234;47.642;19.144;2023-08-30T11:25:50;99342.97;;;22.76;66.20
77227;BME280;66234;47.642;19.144;2023-08-30T11:28:53;99342.03;;;23.02;65.03
77227;BME280;66234;47.642;19.144;2023-08-30T11:31:55;99342.09;;;22.89;64.79
77227;BME280;66234;47.642;19.144;2023-08-30T11:34:58;99337.94;;;23.13;64.55
77227;BME280;66234;47.642;19.144;2023-08-30T11:38:00;99335.66;;;23.07;63.95
77227;BME280;66234;47.642;19.144;2023-08-30T11:41:03;99343.31;;;22.47;66.42
77227;BME280;66234;47.642;19.144;2023-08-30T11:44:07;99336.41;;;22.99;65.06
77227;BME280;66234;47.642;19.144;2023-08-30T11:47:10;99343.34;;;22.83;65.23
77227;BME280;66234;47.642;19.144;2023-08-30T11:50:13;99336.69;;;23.19;63.96
77227;BME280;66234;47.642;19.144;2023-08-30T11:53:16;99335.84;;;22.52;65.59
77227;BME280;66234;47.642;19.144;2023-08-30T11:56:19;99325.38;;;22.82;65.37
77227;BME280;66234;47.642;19.144;2023-08-30T11:59:22;99333.84;;;22.58;65.30
77227;BME280;66234;47.642;19.144;2023-08-30T12:02:26;99329.88;;;23.08;63.74
77227;BME280;66234;47.642;19.144;2023-08-30T12:05:30;99317.38;;;23.07;64.01
77227;BME280;66234;47.642;19.144;2023-08-30T12:08:36;99327.47;;;22.62;66.15
77227;BME280;66234;47.642;19.144;2023-08-30T12:11:38;99332.88;;;22.27;66.60
77227;BME280;66234;47.642;19.144;2023-08-30T12:14:41;99325.34;;;22.10;67.46
77227;BME280;66234;47.642;19.144;2023-08-30T12:17:43;99327.63;;;22.30;66.80
77227;BME280;66234;47.642;19.144;2023-08-30T12:20:56;99321.16;;;22.40;66.82
77227;BME280;66234;47.642;19.144;2023-08-30T12:24:00;99321.72;;;22.50;66.97
77227;BME280;66234;47.642;19.144;2023-08-30T12:27:06;99326.91;;;22.38;67.95
77227;BME280;66234;47.642;19.144;2023-08-30T12:30:09;99321.94;;;22.54;67.61
77227;BME280;66234;47.642;19.144;2023-08-30T12:33:16;99331.34;;;23.28;64.27
77227;BME280;66234;47.642;19.144;2023-08-30T12:36:18;99320.09;;;23.07;65.36
77227;BME280;66234;47.642;19.144;2023-08-30T12:39:22;99324.66;;;22.40;66.63
77227;BME280;66234;47.642;19.144;2023-08-30T12:45:26;99312.22;;;22.12;67.46
77227;BME280;66234;47.642;19.144;2023-08-30T12:48:29;99317.09;;;21.88;68.15
77227;BME280;66234;47.642;19.144;2023-08-30T12:51:31;99308.41;;;21.86;67.21
77227;BME280;66234;47.642;19.144;2023-08-30T12:54:34;99306.81;;;21.85;67.78
77227;BME280;66234;47.642;19.144;2023-08-30T12:57:38;99300.59;;;22.20;67.16
77227;BME280;66234;47.642;19.144;2023-08-30T13:00:40;99304.47;;;22.06;66.88
77227;BME280;66234;47.642;19.144;2023-08-30T13:03:43;99302.31;;;22.30;66.67
77227;BME280;66234;47.642;19.144;2023-08-30T13:06:46;99305.22;;;22.33;65.92
77227;BME280;66234;47.642;19.144;2023-08-30T13:09:48;99306.44;;;22.14;65.44
77227;BME280;66234;47.642;19.144;2023-08-30T13:12:51;99301.34;;;22.48;65.44
77227;BME280;66234;47.642;19.144;2023-08-30T13:15:54;99306.72;;;21.90;65.82
77227;BME280;66234;47.642;19.144;2023-08-30T13:18:56;99306.91;;;21.80;65.96
77227;BME280;66234;47.642;19.144;2023-08-30T13:21:59;99300.53;;;21.98;65.60
77227;BME280;66234;47.642;19.144;2023-08-30T13:25:02;99306.16;;;22.15;65.10
77227;BME280;66234;47.642;19.144;2023-08-30T13:28:06;99311.25;;;22.44;64.41
77227;BME280;66234;47.642;19.144;2023-08-30T13:31:09;99307.53;;;22.26;65.28
77227;BME280;66234;47.642;19.144;2023-08-30T13:34:12;99303.78;;;24.16;58.46
77227;BME280;66234;47.642;19.144;2023-08-30T13:37:14;99306.34;;;24.04;58.94
77227;BME280;66234;47.642;19.144;2023-08-30T13:40:17;99309.41;;;23.72;60.05
77227;BME280;66234;47.642;19.144;2023-08-30T13:43:20;99304.78;;;25.14;56.57
77227;BME280;66234;47.642;19.144;2023-08-30T13:46:22;99300.41;;;25.21;55.88
77227;BME280;66234;47.642;19.144;2023-08-30T13:49:25;99300.31;;;25.93;52.96
77227;BME280;66234;47.642;19.144;2023-08-30T13:52:27;99301.13;;;24.67;56.65
77227;BME280;66234;47.642;19.144;2023-08-30T13:55:32;99303.28;;;24.14;56.59
77227;BME280;66234;47.642;19.144;2023-08-30T13:58:35;99310.28;;;24.88;54.94
77227;BME280;66234;47.642;19.144;2023-08-30T14:01:40;99299.63;;;24.36;55.67
77227;BME280;66234;47.642;19.144;2023-08-30T14:04:42;99310.53;;;25.21;52.68
77227;BME280;66234;47.642;19.144;2023-08-30T14:07:45;99308.44;;;24.07;56.98
77227;BME280;66234;47.642;19.144;2023-08-30T14:10:49;99320.47;;;23.36;58.37
77227;BME280;66234;47.642;19.144;2023-08-30T14:13:52;99321.97;;;22.76;61.21
77227;BME280;66234;47.642;19.144;2023-08-30T14:16:56;99324.19;;;22.52;61.39
77227;BME280;66234;47.642;19.144;2023-08-30T14:19:59;99325.94;;;22.21;62.52
77227;BME280;66234;47.642;19.144;2023-08-30T14:23:02;99332.97;;;22.22;61.93
77227;BME280;66234;47.642;19.144;2023-08-30T14:26:06;99336.72;;;22.12;61.85
77227;BME280;66234;47.642;19.144;2023-08-30T14:29:11;99325.31;;;21.97;62.61
77227;BME280;66234;47.642;19.144;2023-08-30T14:32:14;99322.69;;;22.19;61.63
77227;BME280;66234;47.642;19.144;2023-08-30T14:35:17;99329.97;;;24.17;56.08
77227;BME280;66234;47.642;19.144;2023-08-30T14:38:19;99325.31;;;23.78;57.37
77227;BME280;66234;47.642;19.144;2023-08-30T14:41:22;99341.09;;;23.07;59.54
77227;BME280;66234;47.642;19.144;2023-08-30T14:44:24;99329.22;;;22.81;60.12
77227;BME280;66234;47.642;19.144;2023-08-30T14:47:29;99340.81;;;22.37;61.29
77227;BME280;66234;47.642;19.144;2023-08-30T14:50:32;99336.56;;;23.77;57.28
77227;BME280;66234;47.642;19.144;2023-08-30T14:53:34;99334.28;;;25.63;51.83
77227;BME280;66234;47.642;19.144;2023-08-30T14:56:38;99334.09;;;23.97;55.81
77227;BME280;66234;47.642;19.144;2023-08-30T14:59:40;99349.38;;;23.37;58.28
77227;BME280;66234;47.642;19.144;2023-08-30T15:02:43;99344.91;;;22.97;59.48
77227;BME280;66234;47.642;19.144;2023-08-30T15:05:52;99349.28;;;24.29;55.66
77227;BME280;66234;47.642;19.144;2023-08-30T15:08:56;99345.69;;;23.72;57.48
77227;BME280;66234;47.642;19.144;2023-08-30T15:12:00;99346.63;;;23.68;57.01
77227;BME280;66234;47.642;19.144;2023-08-30T15:15:03;99352.59;;;23.17;58.96
77227;BME280;66234;47.642;19.144;2023-08-30T15:18:06;99359.38;;;22.84;59.86
77227;BME280;66234;47.642;19.144;2023-08-30T15:21:08;99355.81;;;22.48;61.52
77227;BME280;66234;47.642;19.144;2023-08-30T15:24:11;99357.34;;;22.54;62.15
77227;BME280;66234;47.642;19.144;2023-08-30T15:27:14;99358.28;;;22.36;62.74
77227;BME280;66234;47.642;19.144;2023-08-30T15:30:18;99366.50;;;22.09;64.28
77227;BME280;66234;47.642;19.144;2023-08-30T15:33:22;99352.97;;;21.90;64.58
77227;BME280;66234;47.642;19.144;2023-08-30T15:36:26;99349.72;;;22.02;65.00
77227;BME280;66234;47.642;19.144;2023-08-30T15:39:29;99346.88;;;21.53;65.86
77227;BME280;66234;47.642;19.144;2023-08-30T15:42:32;99357.84;;;21.15;67.21
77227;BME280;66234;47.642;19.144;2023-08-30T15:45:35;99357.97;;;22.37;62.96
77227;BME280;66234;47.642;19.144;2023-08-30T15:48:39;99355.41;;;22.68;61.75
77227;BME280;66234;47.642;19.144;2023-08-30T15:51:42;99357.50;;;23.59;59.66
77227;BME280;66234;47.642;19.144;2023-08-30T15:54:44;99354.22;;;22.60;61.69
77227;BME280;66234;47.642;19.144;2023-08-30T15:57:47;99356.69;;;22.21;62.90
77227;BME280;66234;47.642;19.144;2023-08-30T16:00:49;99362.78;;;22.54;62.65
77227;BME280;66234;47.642;19.144;2023-08-30T16:03:52;99363.38;;;23.44;59.18
77227;BME280;66234;47.642;19.144;2023-08-30T16:06:54;99369.06;;;23.12;59.50